Annette Island, AK

1:31 AM AKDT on July 31, 2014 (GMT -0800)
Metlakatla (PAMM) Elev 0 ft | 55.13 °N, 131.58 °W | Change Station

Current weather conditions updated 15 minutes ago

Clear
Clear
52 °F
Feels Like 52 °F
N
4
Wind Variable Wind from East

Today is forecast to be Much Warmer than yesterday.

Today
High -- | Low -- °F
--% Chance of Precip.
Yesterday
High -- | Low -- °F
Precip. -- in
4:53 AM 8:50 PM
Waxing Crescent, 17% visible
Pressure 30.28 in
Visibility 10.0 miles
Clouds Clear
Dew Point 48 °F
Humidity 88%
Rainfall 0.00 in
Snow Depth Not available.
UV 0 out of 12
Pollen Not available.
Air Quality Not available.
Flu Activity Not available.
METAR PAMM 310916Z AUTO 09003KT 10SM CLR 11/09 A3028 RMK AO1

More Conditions Fewer Conditions

Pressure 30.28 in
Visibility 10.0 miles
Clouds Clear
Dew Point 48 °F
Humidity 88%
Rainfall 0.00 in
Snow Depth Not available.
UV 0 out of 12
Pollen Not available.
Air Quality Not available.
Flu Activity Not available.
METAR PAMM 310916Z AUTO 09003KT 10SM CLR 11/09 A3028 RMK AO1

More Conditions Fewer Conditions

10-Day Weather Forecast

Almanac

Astronomy

Jul. 31, 2014 Rise Set
Actual Time 4:53 AM AKDT 8:50 PM AKDT
Civil Twilight 4:06 AM AKDT 9:36 PM AKDT
Nautical Twilight 2:58 AM AKDT 10:43 PM AKDT
Astronomical Twilight 1:25 AM AKDT 12:20 AM AKDT
Moon 10:22 AM AKDT 10:07 PM AKDT
Length of Visible Light 17h 30m
Length of Day
15h 57m
Tomorrow will be 3m 42s shorter.
Waxing Crescent, 17% of the Moon is Illuminated
Today
Waxing Crescent
Aug 3
First Quarter
Aug 10
Full
Aug 17
Last Quarter
Aug 25
New

Today's Extremes

State Highs State Lows

Community

WunderPhotos

Upload Photos

1,739,284 photos uploaded!

Nearby

Snow Depth

Station Depth Elevation
Long Lake 0 in 820 ft
Upper Tsaina River 0 in 1750 ft
Moraine 0 in 2100 ft
Grouse Creek Divide 0 in 700 ft
Grandview 0 in 1100 ft

Earthquake Activity

City Distance Mag. Time & Date
No recent earthquake activity has been reported nearby.
Minimum magnitude displayed is 2.5.

Coastal Water Temperatures

Place Temperature
No Stations Reporting

Nearby Weather Stations

Station Location Temp. Dew Point Humidity Wind Precip. Elev Updated Type
CRN NOAA/NWS ANNETTE ISLAND 6 S AK , Metlakatla, AK 52 °F - - North  at  - 0.00 in / hr 104 ft 12:30 AM AKDT MADIS
Bailey Blvd, Ketchikan, AK 53.1 °F 51 °F 94% NNE  at  0.0 mph 0.00 in / hr 240 ft 1:30 AM AKDT Normal

Show More Stations Show Fewer Stations